sensor_id;sensor_type;location;lat;lon;timestamp;P1;durP1;ratioP1;P2;durP2;ratioP2
9413;SDS011;4746;35.664;139.738;2023-02-28T00:02:03;8.63;;;6.73;;
9413;SDS011;4746;35.664;139.738;2023-02-28T00:04:31;7.40;;;6.60;;
9413;SDS011;4746;35.664;139.738;2023-02-28T00:06:58;7.57;;;6.60;;
9413;SDS011;4746;35.664;139.738;2023-02-28T00:09:28;9.17;;;7.07;;
9413;SDS011;4746;35.664;139.738;2023-02-28T00:11:57;9.27;;;6.90;;
9413;SDS011;4746;35.664;139.738;2023-02-28T00:14:39;6.80;;;6.20;;
9413;SDS011;4746;35.664;139.738;2023-02-28T00:17:10;8.47;;;6.03;;
9413;SDS011;4746;35.664;139.738;2023-02-28T00:19:43;9.33;;;8.30;;
9413;SDS011;4746;35.664;139.738;2023-02-28T00:22:10;8.43;;;7.60;;
9413;SDS011;4746;35.664;139.738;2023-02-28T00:24:48;10.43;;;7.23;;
9413;SDS011;4746;35.664;139.738;2023-02-28T00:27:19;9.47;;;7.13;;
9413;SDS011;4746;35.664;139.738;2023-02-28T00:29:46;7.40;;;6.37;;
9413;SDS011;4746;35.664;139.738;2023-02-28T00:32:20;8.67;;;5.67;;
9413;SDS011;4746;35.664;139.738;2023-02-28T00:34:48;5.07;;;4.67;;
9413;SDS011;4746;35.664;139.738;2023-02-28T00:37:15;5.10;;;4.60;;
9413;SDS011;4746;35.664;139.738;2023-02-28T00:39:43;7.37;;;5.97;;
9413;SDS011;4746;35.664;139.738;2023-02-28T00:42:11;6.57;;;5.23;;
9413;SDS011;4746;35.664;139.738;2023-02-28T00:44:38;6.30;;;5.57;;
9413;SDS011;4746;35.664;139.738;2023-02-28T00:47:07;7.50;;;5.87;;
9413;SDS011;4746;35.664;139.738;2023-02-28T00:49:35;6.23;;;5.13;;
9413;SDS011;4746;35.664;139.738;2023-02-28T00:52:04;6.30;;;5.47;;
9413;SDS011;4746;35.664;139.738;2023-02-28T00:54:32;6.27;;;5.70;;
9413;SDS011;4746;35.664;139.738;2023-02-28T00:57:02;6.80;;;6.13;;
9413;SDS011;4746;35.664;139.738;2023-02-28T00:59:35;5.97;;;5.33;;
9413;SDS011;4746;35.664;139.738;2023-02-28T01:02:03;7.20;;;5.63;;
9413;SDS011;4746;35.664;139.738;2023-02-28T01:04:30;5.53;;;4.70;;
9413;SDS011;4746;35.664;139.738;2023-02-28T01:06:58;5.87;;;4.63;;
9413;SDS011;4746;35.664;139.738;2023-02-28T01:09:49;4.70;;;4.23;;
9413;SDS011;4746;35.664;139.738;2023-02-28T01:12:34;6.43;;;4.80;;
9413;SDS011;4746;35.664;139.738;2023-02-28T01:15:10;5.20;;;4.70;;
9413;SDS011;4746;35.664;139.738;2023-02-28T01:17:37;5.47;;;4.30;;
9413;SDS011;4746;35.664;139.738;2023-02-28T01:20:05;5.70;;;4.80;;
9413;SDS011;4746;35.664;139.738;2023-02-28T01:22:34;6.70;;;5.00;;
9413;SDS011;4746;35.664;139.738;2023-02-28T01:25:02;7.87;;;4.57;;
9413;SDS011;4746;35.664;139.738;2023-02-28T01:27:33;6.40;;;5.53;;
9413;SDS011;4746;35.664;139.738;2023-02-28T01:30:01;6.33;;;5.10;;
9413;SDS011;4746;35.664;139.738;2023-02-28T01:32:29;7.53;;;5.13;;
9413;SDS011;4746;35.664;139.738;2023-02-28T01:34:57;6.30;;;5.10;;
9413;SDS011;4746;35.664;139.738;2023-02-28T01:37:24;5.20;;;4.70;;
9413;SDS011;4746;35.664;139.738;2023-02-28T01:39:52;5.43;;;4.83;;
9413;SDS011;4746;35.664;139.738;2023-02-28T01:42:20;7.20;;;4.90;;
9413;SDS011;4746;35.664;139.738;2023-02-28T01:47:44;7.90;;;5.83;;
9413;SDS011;4746;35.664;139.738;2023-02-28T01:50:20;8.10;;;5.93;;
9413;SDS011;4746;35.664;139.738;2023-02-28T01:52:56;10.87;;;7.50;;
9413;SDS011;4746;35.664;139.738;2023-02-28T01:55:30;9.07;;;7.17;;
9413;SDS011;4746;35.664;139.738;2023-02-28T01:58:01;7.57;;;6.10;;
9413;SDS011;4746;35.664;139.738;2023-02-28T02:00:32;9.00;;;6.40;;
9413;SDS011;4746;35.664;139.738;2023-02-28T02:03:07;7.80;;;6.17;;
9413;SDS011;4746;35.664;139.738;2023-02-28T02:05:44;13.07;;;7.53;;
9413;SDS011;4746;35.664;139.738;2023-02-28T02:08:13;10.13;;;8.90;;
9413;SDS011;4746;35.664;139.738;2023-02-28T02:10:56;9.63;;;7.17;;
9413;SDS011;4746;35.664;139.738;2023-02-28T02:29:34;3.23;;;2.17;;
9413;SDS011;4746;35.664;139.738;2023-02-28T02:35:52;2.53;;;1.50;;
9413;SDS011;4746;35.664;139.738;2023-02-28T02:38:52;4.17;;;1.93;;
9413;SDS011;4746;35.664;139.738;2023-02-28T02:41:52;2.23;;;1.10;;
9413;SDS011;4746;35.664;139.738;2023-02-28T02:44:23;3.43;;;1.80;;
9413;SDS011;4746;35.664;139.738;2023-02-28T02:47:15;5.83;;;2.00;;
9413;SDS011;4746;35.664;139.738;2023-02-28T02:49:51;3.93;;;1.90;;
9413;SDS011;4746;35.664;139.738;2023-02-28T02:52:24;1.90;;;1.73;;
9413;SDS011;4746;35.664;139.738;2023-02-28T02:55:06;2.83;;;1.40;;
9413;SDS011;4746;35.664;139.738;2023-02-28T02:57:48;4.40;;;1.90;;
9413;SDS011;4746;35.664;139.738;2023-02-28T03:00:31;7.10;;;1.53;;
9413;SDS011;4746;35.664;139.738;2023-02-28T03:03:05;5.20;;;1.80;;
9413;SDS011;4746;35.664;139.738;2023-02-28T03:05:48;5.43;;;2.07;;
9413;SDS011;4746;35.664;139.738;2023-02-28T03:08:17;4.80;;;1.70;;
9413;SDS011;4746;35.664;139.738;2023-02-28T03:10:46;3.37;;;2.27;;
9413;SDS011;4746;35.664;139.738;2023-02-28T03:22:12;3.53;;;1.77;;
9413;SDS011;4746;35.664;139.738;2023-02-28T03:33:06;5.73;;;2.07;;
9413;SDS011;4746;35.664;139.738;2023-02-28T03:35:45;5.63;;;2.07;;
9413;SDS011;4746;35.664;139.738;2023-02-28T03:38:39;1.53;;;1.40;;
9413;SDS011;4746;35.664;139.738;2023-02-28T03:41:22;5.20;;;2.07;;
9413;SDS011;4746;35.664;139.738;2023-02-28T03:44:05;7.23;;;2.30;;
9413;SDS011;4746;35.664;139.738;2023-02-28T03:47:06;5.10;;;1.60;;
9413;SDS011;4746;35.664;139.738;2023-02-28T03:50:04;4.00;;;1.80;;
9413;SDS011;4746;35.664;139.738;2023-02-28T03:52:42;3.23;;;1.80;;
9413;SDS011;4746;35.664;139.738;2023-02-28T03:55:18;5.93;;;1.40;;
9413;SDS011;4746;35.664;139.738;2023-02-28T03:57:54;4.20;;;2.00;;
9413;SDS011;4746;35.664;139.738;2023-02-28T04:01:05;5.50;;;1.50;;
9413;SDS011;4746;35.664;139.738;2023-02-28T04:03:43;3.50;;;2.07;;
9413;SDS011;4746;35.664;139.738;2023-02-28T04:06:17;2.07;;;1.37;;
9413;SDS011;4746;35.664;139.738;2023-02-28T04:08:48;4.83;;;1.63;;
9413;SDS011;4746;35.664;139.738;2023-02-28T04:11:53;3.03;;;1.63;;
9413;SDS011;4746;35.664;139.738;2023-02-28T04:14:18;6.17;;;1.60;;
9413;SDS011;4746;35.664;139.738;2023-02-28T04:16:45;2.50;;;1.33;;
9413;SDS011;4746;35.664;139.738;2023-02-28T04:19:16;2.47;;;1.50;;
9413;SDS011;4746;35.664;139.738;2023-02-28T04:21:45;4.40;;;1.70;;
9413;SDS011;4746;35.664;139.738;2023-02-28T04:24:26;5.10;;;1.77;;
9413;SDS011;4746;35.664;139.738;2023-02-28T04:26:55;3.40;;;1.70;;
9413;SDS011;4746;35.664;139.738;2023-02-28T04:29:28;4.00;;;1.50;;
9413;SDS011;4746;35.664;139.738;2023-02-28T04:31:58;4.93;;;2.00;;
9413;SDS011;4746;35.664;139.738;2023-02-28T04:34:28;2.67;;;1.70;;
9413;SDS011;4746;35.664;139.738;2023-02-28T04:36:59;2.70;;;1.57;;
9413;SDS011;4746;35.664;139.738;2023-02-28T04:39:28;7.40;;;1.57;;
9413;SDS011;4746;35.664;139.738;2023-02-28T04:41:55;4.33;;;1.40;;
9413;SDS011;4746;35.664;139.738;2023-02-28T04:44:23;7.17;;;1.87;;
9413;SDS011;4746;35.664;139.738;2023-02-28T04:46:51;5.67;;;1.80;;
9413;SDS011;4746;35.664;139.738;2023-02-28T04:49:21;4.00;;;1.50;;
9413;SDS011;4746;35.664;139.738;2023-02-28T04:51:51;3.27;;;1.53;;
9413;SDS011;4746;35.664;139.738;2023-02-28T04:54:18;4.82;;;1.80;;
9413;SDS011;4746;35.664;139.738;2023-02-28T04:56:46;4.10;;;1.60;;
9413;SDS011;4746;35.664;139.738;2023-02-28T04:59:15;6.35;;;2.55;;
9413;SDS011;4746;35.664;139.738;2023-02-28T05:01:45;3.13;;;1.48;;
9413;SDS011;4746;35.664;139.738;2023-02-28T05:04:14;5.57;;;1.48;;
9413;SDS011;4746;35.664;139.738;2023-02-28T05:06:44;4.90;;;1.50;;
9413;SDS011;4746;35.664;139.738;2023-02-28T05:09:12;3.60;;;1.70;;
9413;SDS011;4746;35.664;139.738;2023-02-28T05:11:40;4.25;;;1.90;;
9413;SDS011;4746;35.664;139.738;2023-02-28T05:14:11;2.72;;;1.55;;
9413;SDS011;4746;35.664;139.738;2023-02-28T05:16:40;3.42;;;1.40;;
9413;SDS011;4746;35.664;139.738;2023-02-28T05:19:08;3.47;;;1.27;;
9413;SDS011;4746;35.664;139.738;2023-02-28T05:21:40;3.72;;;1.33;;
9413;SDS011;4746;35.664;139.738;2023-02-28T05:24:18;5.40;;;1.50;;
9413;SDS011;4746;35.664;139.738;2023-02-28T05:26:49;4.82;;;1.90;;
9413;SDS011;4746;35.664;139.738;2023-02-28T05:29:19;4.75;;;1.58;;
9413;SDS011;4746;35.664;139.738;2023-02-28T05:31:47;4.53;;;1.40;;
9413;SDS011;4746;35.664;139.738;2023-02-28T05:34:14;4.15;;;1.58;;
9413;SDS011;4746;35.664;139.738;2023-02-28T05:36:42;5.28;;;1.92;;
9413;SDS011;4746;35.664;139.738;2023-02-28T05:39:11;2.95;;;1.60;;
9413;SDS011;4746;35.664;139.738;2023-02-28T05:41:39;4.57;;;1.55;;
9413;SDS011;4746;35.664;139.738;2023-02-28T05:44:08;5.82;;;1.50;;
9413;SDS011;4746;35.664;139.738;2023-02-28T05:46:36;4.45;;;1.83;;
9413;SDS011;4746;35.664;139.738;2023-02-28T05:49:04;3.80;;;1.48;;
9413;SDS011;4746;35.664;139.738;2023-02-28T05:51:31;5.38;;;2.08;;
9413;SDS011;4746;35.664;139.738;2023-02-28T05:54:01;3.88;;;1.50;;
9413;SDS011;4746;35.664;139.738;2023-02-28T05:56:29;5.03;;;1.63;;
9413;SDS011;4746;35.664;139.738;2023-02-28T05:58:57;7.80;;;1.75;;
9413;SDS011;4746;35.664;139.738;2023-02-28T06:01:31;6.18;;;1.83;;
9413;SDS011;4746;35.664;139.738;2023-02-28T06:04:13;4.10;;;1.58;;
9413;SDS011;4746;35.664;139.738;2023-02-28T06:06:44;3.50;;;1.50;;
9413;SDS011;4746;35.664;139.738;2023-02-28T06:09:13;4.78;;;2.08;;
9413;SDS011;4746;35.664;139.738;2023-02-28T06:11:42;4.13;;;1.52;;
9413;SDS011;4746;35.664;139.738;2023-02-28T06:14:14;4.05;;;1.63;;
9413;SDS011;4746;35.664;139.738;2023-02-28T06:16:44;2.65;;;1.67;;
9413;SDS011;4746;35.664;139.738;2023-02-28T06:19:12;6.63;;;1.60;;
9413;SDS011;4746;35.664;139.738;2023-02-28T06:21:41;5.22;;;1.70;;
9413;SDS011;4746;35.664;139.738;2023-02-28T06:24:09;6.35;;;1.42;;
9413;SDS011;4746;35.664;139.738;2023-02-28T06:26:37;2.58;;;1.50;;
9413;SDS011;4746;35.664;139.738;2023-02-28T06:29:04;6.43;;;1.30;;
9413;SDS011;4746;35.664;139.738;2023-02-28T06:31:32;5.32;;;2.08;;
9413;SDS011;4746;35.664;139.738;2023-02-28T06:34:00;3.33;;;1.60;;
9413;SDS011;4746;35.664;139.738;2023-02-28T06:36:30;2.53;;;1.40;;
9413;SDS011;4746;35.664;139.738;2023-02-28T06:38:58;2.45;;;1.20;;
9413;SDS011;4746;35.664;139.738;2023-02-28T06:41:25;6.07;;;2.00;;
9413;SDS011;4746;35.664;139.738;2023-02-28T06:43:53;3.10;;;1.83;;
9413;SDS011;4746;35.664;139.738;2023-02-28T06:46:21;5.18;;;1.27;;
9413;SDS011;4746;35.664;139.738;2023-02-28T06:48:49;4.93;;;1.60;;
9413;SDS011;4746;35.664;139.738;2023-02-28T06:51:18;3.13;;;1.38;;
9413;SDS011;4746;35.664;139.738;2023-02-28T06:53:47;3.78;;;1.77;;
9413;SDS011;4746;35.664;139.738;2023-02-28T06:56:20;3.45;;;1.30;;
9413;SDS011;4746;35.664;139.738;2023-02-28T06:58:48;3.17;;;1.55;;
9413;SDS011;4746;35.664;139.738;2023-02-28T07:01:18;3.40;;;1.80;;
9413;SDS011;4746;35.664;139.738;2023-02-28T07:03:48;2.13;;;1.42;;
9413;SDS011;4746;35.664;139.738;2023-02-28T07:06:21;1.92;;;1.20;;
9413;SDS011;4746;35.664;139.738;2023-02-28T07:08:51;3.10;;;1.67;;
9413;SDS011;4746;35.664;139.738;2023-02-28T07:11:19;2.70;;;1.48;;
9413;SDS011;4746;35.664;139.738;2023-02-28T07:13:51;6.00;;;1.90;;
9413;SDS011;4746;35.664;139.738;2023-02-28T07:16:20;2.58;;;1.25;;
9413;SDS011;4746;35.664;139.738;2023-02-28T07:18:52;3.97;;;1.52;;
9413;SDS011;4746;35.664;139.738;2023-02-28T07:21:20;4.32;;;1.67;;
9413;SDS011;4746;35.664;139.738;2023-02-28T07:23:48;1.88;;;1.30;;
9413;SDS011;4746;35.664;139.738;2023-02-28T07:26:17;9.68;;;1.73;;
9413;SDS011;4746;35.664;139.738;2023-02-28T07:28:46;5.28;;;1.50;;
9413;SDS011;4746;35.664;139.738;2023-02-28T07:31:16;4.00;;;1.38;;
9413;SDS011;4746;35.664;139.738;2023-02-28T07:33:44;4.13;;;1.95;;
9413;SDS011;4746;35.664;139.738;2023-02-28T07:36:13;5.05;;;1.40;;
9413;SDS011;4746;35.664;139.738;2023-02-28T07:38:45;3.20;;;1.50;;
9413;SDS011;4746;35.664;139.738;2023-02-28T07:41:15;2.67;;;1.63;;
9413;SDS011;4746;35.664;139.738;2023-02-28T07:43:46;3.83;;;1.65;;
9413;SDS011;4746;35.664;139.738;2023-02-28T07:46:15;3.05;;;1.45;;
9413;SDS011;4746;35.664;139.738;2023-02-28T07:48:45;3.05;;;1.58;;
9413;SDS011;4746;35.664;139.738;2023-02-28T07:51:13;4.93;;;2.03;;
9413;SDS011;4746;35.664;139.738;2023-02-28T07:53:40;5.10;;;1.52;;
9413;SDS011;4746;35.664;139.738;2023-02-28T07:56:08;2.45;;;1.45;;
9413;SDS011;4746;35.664;139.738;2023-02-28T07:58:36;1.60;;;1.33;;
9413;SDS011;4746;35.664;139.738;2023-02-28T08:01:07;3.00;;;1.52;;
9413;SDS011;4746;35.664;139.738;2023-02-28T08:03:36;3.47;;;1.40;;
9413;SDS011;4746;35.664;139.738;2023-02-28T08:06:06;2.35;;;1.30;;
9413;SDS011;4746;35.664;139.738;2023-02-28T08:08:42;5.90;;;2.15;;
9413;SDS011;4746;35.664;139.738;2023-02-28T08:11:10;3.47;;;1.40;;
9413;SDS011;4746;35.664;139.738;2023-02-28T08:13:38;2.22;;;1.40;;
9413;SDS011;4746;35.664;139.738;2023-02-28T08:16:07;3.95;;;1.70;;
9413;SDS011;4746;35.664;139.738;2023-02-28T08:18:35;4.05;;;1.48;;
9413;SDS011;4746;35.664;139.738;2023-02-28T08:21:07;2.08;;;1.52;;
9413;SDS011;4746;35.664;139.738;2023-02-28T08:23:36;3.40;;;1.90;;
9413;SDS011;4746;35.664;139.738;2023-02-28T08:26:04;3.90;;;1.90;;
9413;SDS011;4746;35.664;139.738;2023-02-28T08:28:32;2.33;;;1.50;;
9413;SDS011;4746;35.664;139.738;2023-02-28T08:31:00;4.07;;;1.90;;
9413;SDS011;4746;35.664;139.738;2023-02-28T08:33:34;4.50;;;1.87;;
9413;SDS011;4746;35.664;139.738;2023-02-28T08:36:04;2.67;;;1.60;;
9413;SDS011;4746;35.664;139.738;2023-02-28T08:38:34;5.23;;;1.80;;
9413;SDS011;4746;35.664;139.738;2023-02-28T08:41:05;2.97;;;1.53;;
9413;SDS011;4746;35.664;139.738;2023-02-28T08:43:36;3.20;;;1.57;;
9413;SDS011;4746;35.664;139.738;2023-02-28T08:46:05;3.73;;;2.13;;
9413;SDS011;4746;35.664;139.738;2023-02-28T08:48:34;3.10;;;1.50;;
9413;SDS011;4746;35.664;139.738;2023-02-28T08:51:06;2.23;;;1.40;;
9413;SDS011;4746;35.664;139.738;2023-02-28T08:53:38;2.73;;;1.70;;
9413;SDS011;4746;35.664;139.738;2023-02-28T08:56:10;2.27;;;1.53;;
9413;SDS011;4746;35.664;139.738;2023-02-28T08:58:41;2.90;;;1.50;;
9413;SDS011;4746;35.664;139.738;2023-02-28T09:01:11;3.53;;;1.60;;
9413;SDS011;4746;35.664;139.738;2023-02-28T09:03:49;3.03;;;1.90;;
9413;SDS011;4746;35.664;139.738;2023-02-28T09:06:18;2.23;;;1.70;;
9413;SDS011;4746;35.664;139.738;2023-02-28T09:08:48;2.93;;;2.10;;
9413;SDS011;4746;35.664;139.738;2023-02-28T09:11:17;3.77;;;1.70;;
9413;SDS011;4746;35.664;139.738;2023-02-28T09:13:48;3.90;;;1.67;;
9413;SDS011;4746;35.664;139.738;2023-02-28T09:16:15;3.77;;;1.60;;
9413;SDS011;4746;35.664;139.738;2023-02-28T09:18:45;1.67;;;1.57;;
9413;SDS011;4746;35.664;139.738;2023-02-28T09:21:13;3.50;;;1.60;;
9413;SDS011;4746;35.664;139.738;2023-02-28T09:23:44;4.27;;;2.10;;
9413;SDS011;4746;35.664;139.738;2023-02-28T09:26:21;2.03;;;1.80;;
9413;SDS011;4746;35.664;139.738;2023-02-28T09:28:53;2.83;;;1.73;;
9413;SDS011;4746;35.664;139.738;2023-02-28T09:31:25;2.30;;;1.80;;
9413;SDS011;4746;35.664;139.738;2023-02-28T09:33:55;4.10;;;2.43;;
9413;SDS011;4746;35.664;139.738;2023-02-28T09:36:25;2.20;;;2.00;;
9413;SDS011;4746;35.664;139.738;2023-02-28T09:38:55;2.43;;;1.80;;
9413;SDS011;4746;35.664;139.738;2023-02-28T09:41:23;3.93;;;1.77;;
9413;SDS011;4746;35.664;139.738;2023-02-28T09:44:01;1.97;;;1.73;;
9413;SDS011;4746;35.664;139.738;2023-02-28T09:46:40;4.60;;;2.13;;
9413;SDS011;4746;35.664;139.738;2023-02-28T09:49:58;2.20;;;1.67;;
9413;SDS011;4746;35.664;139.738;2023-02-28T09:52:17;2.67;;;1.90;;
9413;SDS011;4746;35.664;139.738;2023-02-28T09:54:55;2.77;;;2.23;;
9413;SDS011;4746;35.664;139.738;2023-02-28T09:57:47;2.70;;;1.80;;
9413;SDS011;4746;35.664;139.738;2023-02-28T10:00:22;6.87;;;2.13;;
9413;SDS011;4746;35.664;139.738;2023-02-28T10:03:19;2.87;;;2.00;;
9413;SDS011;4746;35.664;139.738;2023-02-28T10:06:17;3.17;;;2.27;;
9413;SDS011;4746;35.664;139.738;2023-02-28T10:08:56;2.90;;;2.13;;
9413;SDS011;4746;35.664;139.738;2023-02-28T10:11:32;3.40;;;2.27;;
9413;SDS011;4746;35.664;139.738;2023-02-28T10:16:48;2.30;;;2.07;;
9413;SDS011;4746;35.664;139.738;2023-02-28T10:24:48;4.57;;;2.20;;
9413;SDS011;4746;35.664;139.738;2023-02-28T10:27:28;4.87;;;2.37;;
9413;SDS011;4746;35.664;139.738;2023-02-28T10:29:59;2.10;;;1.90;;
9413;SDS011;4746;35.664;139.738;2023-02-28T10:32:29;3.00;;;2.10;;
9413;SDS011;4746;35.664;139.738;2023-02-28T10:35:15;3.50;;;2.20;;
9413;SDS011;4746;35.664;139.738;2023-02-28T10:37:47;5.13;;;2.70;;
9413;SDS011;4746;35.664;139.738;2023-02-28T10:40:32;6.20;;;2.60;;
9413;SDS011;4746;35.664;139.738;2023-02-28T10:45:39;3.10;;;2.50;;
9413;SDS011;4746;35.664;139.738;2023-02-28T10:50:54;3.80;;;2.50;;
9413;SDS011;4746;35.664;139.738;2023-02-28T10:56:03;3.47;;;2.67;;
9413;SDS011;4746;35.664;139.738;2023-02-28T10:58:59;4.23;;;2.63;;
9413;SDS011;4746;35.664;139.738;2023-02-28T11:01:54;3.27;;;2.67;;
9413;SDS011;4746;35.664;139.738;2023-02-28T11:07:02;5.30;;;2.67;;
9413;SDS011;4746;35.664;139.738;2023-02-28T11:09:45;2.60;;;2.40;;
9413;SDS011;4746;35.664;139.738;2023-02-28T11:18:30;4.13;;;2.80;;
9413;SDS011;4746;35.664;139.738;2023-02-28T11:21:05;4.13;;;2.83;;
9413;SDS011;4746;35.664;139.738;2023-02-28T11:23:35;4.33;;;2.97;;
9413;SDS011;4746;35.664;139.738;2023-02-28T11:26:08;3.23;;;2.93;;
9413;SDS011;4746;35.664;139.738;2023-02-28T11:28:38;3.60;;;3.20;;
9413;SDS011;4746;35.664;139.738;2023-02-28T11:38:56;7.03;;;3.37;;
9413;SDS011;4746;35.664;139.738;2023-02-28T11:47:11;4.93;;;3.00;;
9413;SDS011;4746;35.664;139.738;2023-02-28T11:57:03;7.23;;;3.03;;
9413;SDS011;4746;35.664;139.738;2023-02-28T12:05:39;4.80;;;2.97;;
9413;SDS011;4746;35.664;139.738;2023-02-28T12:25:56;4.00;;;3.10;;
9413;SDS011;4746;35.664;139.738;2023-02-28T12:28:54;4.87;;;3.47;;
9413;SDS011;4746;35.664;139.738;2023-02-28T12:34:47;4.10;;;3.00;;
9413;SDS011;4746;35.664;139.738;2023-02-28T12:41:03;4.73;;;2.63;;
9413;SDS011;4746;35.664;139.738;2023-02-28T12:43:46;6.47;;;2.70;;
9413;SDS011;4746;35.664;139.738;2023-02-28T12:46:39;3.83;;;3.30;;
9413;SDS011;4746;35.664;139.738;2023-02-28T12:49:38;4.80;;;2.90;;
9413;SDS011;4746;35.664;139.738;2023-02-28T12:52:09;4.77;;;3.40;;
9413;SDS011;4746;35.664;139.738;2023-02-28T12:54:46;5.20;;;3.00;;
9413;SDS011;4746;35.664;139.738;2023-02-28T12:57:32;5.17;;;3.13;;
9413;SDS011;4746;35.664;139.738;2023-02-28T13:00:35;5.77;;;3.40;;
9413;SDS011;4746;35.664;139.738;2023-02-28T13:09:21;3.43;;;3.00;;
9413;SDS011;4746;35.664;139.738;2023-02-28T13:11:50;4.73;;;3.07;;
9413;SDS011;4746;35.664;139.738;2023-02-28T13:14:35;8.67;;;3.53;;
9413;SDS011;4746;35.664;139.738;2023-02-28T13:19:44;6.57;;;3.67;;
9413;SDS011;4746;35.664;139.738;2023-02-28T13:25:49;5.40;;;3.03;;
9413;SDS011;4746;35.664;139.738;2023-02-28T13:28:03;4.23;;;3.17;;
9413;SDS011;4746;35.664;139.738;2023-02-28T13:38:40;6.27;;;3.67;;
9413;SDS011;4746;35.664;139.738;2023-02-28T13:46:29;5.30;;;2.93;;
9413;SDS011;4746;35.664;139.738;2023-02-28T13:54:56;5.60;;;3.27;;
9413;SDS011;4746;35.664;139.738;2023-02-28T14:01:01;3.63;;;2.93;;
9413;SDS011;4746;35.664;139.738;2023-02-28T14:03:47;5.27;;;3.10;;
9413;SDS011;4746;35.664;139.738;2023-02-28T14:08:59;4.23;;;3.23;;
9413;SDS011;4746;35.664;139.738;2023-02-28T14:11:54;5.63;;;3.37;;
9413;SDS011;4746;35.664;139.738;2023-02-28T14:17:03;3.13;;;2.93;;
9413;SDS011;4746;35.664;139.738;2023-02-28T14:19:38;3.80;;;2.50;;
9413;SDS011;4746;35.664;139.738;2023-02-28T14:22:18;4.77;;;3.37;;
9413;SDS011;4746;35.664;139.738;2023-02-28T14:25:17;4.90;;;3.03;;
9413;SDS011;4746;35.664;139.738;2023-02-28T14:31:41;3.33;;;2.83;;
9413;SDS011;4746;35.664;139.738;2023-02-28T14:34:30;5.23;;;3.17;;
9413;SDS011;4746;35.664;139.738;2023-02-28T14:37:26;3.87;;;2.90;;
9413;SDS011;4746;35.664;139.738;2023-02-28T14:40:02;5.00;;;2.63;;
9413;SDS011;4746;35.664;139.738;2023-02-28T14:42:46;5.40;;;2.77;;
9413;SDS011;4746;35.664;139.738;2023-02-28T14:45:22;4.57;;;2.80;;
9413;SDS011;4746;35.664;139.738;2023-02-28T14:47:50;4.37;;;2.60;;
9413;SDS011;4746;35.664;139.738;2023-02-28T14:50:22;4.20;;;2.77;;
9413;SDS011;4746;35.664;139.738;2023-02-28T14:52:58;4.10;;;2.80;;
9413;SDS011;4746;35.664;139.738;2023-02-28T14:55:34;5.70;;;3.30;;
9413;SDS011;4746;35.664;139.738;2023-02-28T14:58:03;6.43;;;3.00;;
9413;SDS011;4746;35.664;139.738;2023-02-28T15:00:49;4.83;;;3.03;;
9413;SDS011;4746;35.664;139.738;2023-02-28T15:03:24;3.63;;;2.60;;
9413;SDS011;4746;35.664;139.738;2023-02-28T15:06:06;5.20;;;2.70;;
9413;SDS011;4746;35.664;139.738;2023-02-28T15:08:45;2.97;;;2.50;;
9413;SDS011;4746;35.664;139.738;2023-02-28T15:11:33;3.87;;;2.93;;
9413;SDS011;4746;35.664;139.738;2023-02-28T15:14:03;3.40;;;2.30;;
9413;SDS011;4746;35.664;139.738;2023-02-28T15:16:32;3.93;;;2.90;;
9413;SDS011;4746;35.664;139.738;2023-02-28T15:19:20;4.77;;;2.93;;
9413;SDS011;4746;35.664;139.738;2023-02-28T15:24:41;3.13;;;2.60;;
9413;SDS011;4746;35.664;139.738;2023-02-28T15:27:20;4.00;;;2.53;;
9413;SDS011;4746;35.664;139.738;2023-02-28T15:29:56;3.77;;;2.87;;
9413;SDS011;4746;35.664;139.738;2023-02-28T15:32:34;3.50;;;2.90;;
9413;SDS011;4746;35.664;139.738;2023-02-28T15:35:24;4.50;;;2.60;;
9413;SDS011;4746;35.664;139.738;2023-02-28T15:37:58;3.93;;;2.60;;
9413;SDS011;4746;35.664;139.738;2023-02-28T15:40:43;2.77;;;2.53;;
9413;SDS011;4746;35.664;139.738;2023-02-28T15:43:23;5.50;;;2.87;;
9413;SDS011;4746;35.664;139.738;2023-02-28T15:45:59;3.70;;;2.60;;
9413;SDS011;4746;35.664;139.738;2023-02-28T15:48:45;2.80;;;2.47;;
9413;SDS011;4746;35.664;139.738;2023-02-28T15:51:22;4.63;;;2.93;;
9413;SDS011;4746;35.664;139.738;2023-02-28T15:54:06;5.80;;;2.70;;
9413;SDS011;4746;35.664;139.738;2023-02-28T15:56:46;2.83;;;2.50;;
9413;SDS011;4746;35.664;139.738;2023-02-28T15:59:25;4.47;;;2.47;;
9413;SDS011;4746;35.664;139.738;2023-02-28T16:02:13;3.00;;;2.70;;
9413;SDS011;4746;35.664;139.738;2023-02-28T16:08:01;4.20;;;2.70;;
9413;SDS011;4746;35.664;139.738;2023-02-28T16:10:41;3.43;;;3.13;;
9413;SDS011;4746;35.664;139.738;2023-02-28T16:13:11;4.03;;;2.70;;
9413;SDS011;4746;35.664;139.738;2023-02-28T16:15:42;3.83;;;2.60;;
9413;SDS011;4746;35.664;139.738;2023-02-28T16:18:11;3.53;;;2.40;;
9413;SDS011;4746;35.664;139.738;2023-02-28T16:20:40;4.73;;;2.80;;
9413;SDS011;4746;35.664;139.738;2023-02-28T16:23:10;3.07;;;2.77;;
9413;SDS011;4746;35.664;139.738;2023-02-28T16:25:40;4.93;;;2.77;;
9413;SDS011;4746;35.664;139.738;2023-02-28T16:28:23;4.07;;;2.70;;
9413;SDS011;4746;35.664;139.738;2023-02-28T16:31:04;4.20;;;2.63;;
9413;SDS011;4746;35.664;139.738;2023-02-28T16:33:37;3.87;;;2.90;;
9413;SDS011;4746;35.664;139.738;2023-02-28T16:36:13;3.37;;;3.07;;
9413;SDS011;4746;35.664;139.738;2023-02-28T16:38:45;3.47;;;2.53;;
9413;SDS011;4746;35.664;139.738;2023-02-28T16:41:17;3.27;;;2.40;;
9413;SDS011;4746;35.664;139.738;2023-02-28T16:43:51;3.30;;;2.40;;
9413;SDS011;4746;35.664;139.738;2023-02-28T16:46:32;6.27;;;2.93;;
9413;SDS011;4746;35.664;139.738;2023-02-28T16:49:02;3.67;;;2.63;;
9413;SDS011;4746;35.664;139.738;2023-02-28T16:51:30;4.70;;;2.70;;
9413;SDS011;4746;35.664;139.738;2023-02-28T16:53:59;5.70;;;2.83;;
9413;SDS011;4746;35.664;139.738;2023-02-28T16:56:27;3.40;;;2.90;;
9413;SDS011;4746;35.664;139.738;2023-02-28T16:58:58;3.33;;;3.03;;
9413;SDS011;4746;35.664;139.738;2023-02-28T17:01:31;5.17;;;3.30;;
9413;SDS011;4746;35.664;139.738;2023-02-28T17:03:59;3.87;;;3.17;;
9413;SDS011;4746;35.664;139.738;2023-02-28T17:06:27;4.37;;;3.07;;
9413;SDS011;4746;35.664;139.738;2023-02-28T17:08:57;3.50;;;2.50;;
9413;SDS011;4746;35.664;139.738;2023-02-28T17:11:25;3.47;;;3.13;;
9413;SDS011;4746;35.664;139.738;2023-02-28T17:13:53;4.00;;;3.53;;
9413;SDS011;4746;35.664;139.738;2023-02-28T17:16:30;3.30;;;2.87;;
9413;SDS011;4746;35.664;139.738;2023-02-28T17:19:16;3.30;;;2.60;;
9413;SDS011;4746;35.664;139.738;2023-02-28T17:21:44;3.67;;;2.70;;
9413;SDS011;4746;35.664;139.738;2023-02-28T17:24:12;4.33;;;2.70;;
9413;SDS011;4746;35.664;139.738;2023-02-28T17:26:40;5.07;;;2.60;;
9413;SDS011;4746;35.664;139.738;2023-02-28T17:29:16;2.83;;;2.50;;
9413;SDS011;4746;35.664;139.738;2023-02-28T17:31:47;3.63;;;2.73;;
9413;SDS011;4746;35.664;139.738;2023-02-28T17:34:14;5.90;;;2.90;;
9413;SDS011;4746;35.664;139.738;2023-02-28T17:36:44;3.37;;;2.77;;
9413;SDS011;4746;35.664;139.738;2023-02-28T17:39:13;3.57;;;2.70;;
9413;SDS011;4746;35.664;139.738;2023-02-28T17:41:58;6.30;;;2.77;;
9413;SDS011;4746;35.664;139.738;2023-02-28T17:44:36;3.07;;;2.87;;
9413;SDS011;4746;35.664;139.738;2023-02-28T17:47:04;4.23;;;2.90;;
9413;SDS011;4746;35.664;139.738;2023-02-28T17:49:35;4.63;;;2.73;;
9413;SDS011;4746;35.664;139.738;2023-02-28T17:52:16;5.63;;;3.20;;
9413;SDS011;4746;35.664;139.738;2023-02-28T17:55:05;2.93;;;2.63;;
9413;SDS011;4746;35.664;139.738;2023-02-28T17:57:44;3.03;;;2.57;;
9413;SDS011;4746;35.664;139.738;2023-02-28T18:00:16;3.63;;;2.70;;
9413;SDS011;4746;35.664;139.738;2023-02-28T18:02:45;3.73;;;2.80;;
9413;SDS011;4746;35.664;139.738;2023-02-28T18:05:12;2.83;;;2.63;;
9413;SDS011;4746;35.664;139.738;2023-02-28T18:07:40;5.27;;;2.90;;
9413;SDS011;4746;35.664;139.738;2023-02-28T18:10:13;3.80;;;2.40;;
9413;SDS011;4746;35.664;139.738;2023-02-28T18:12:48;4.70;;;2.70;;
9413;SDS011;4746;35.664;139.738;2023-02-28T18:15:18;2.83;;;2.57;;